الصفحة الرئيسية
METAR-TAF:

METAR-TAF

مطار :

مطار واشنطن دولس الدولي

Washington, فيرجينيا, الولايات المتحدة

دائرة عرض: 38-56-05N, خط طول: 077-26-51W, ارتفاع: 95 متر

مراقبة الطقس الحالي

تاريخ ووقت الإصدار 45 دقيقة قبل الساعة 21:52UTC
ريح 8 عقدة من الجنوب/الجنوب الغربي
درجة الحرارة 27°درجة مئوية
الرطوبة 74%
ضغط 1011 hPa
الرؤية: 16.1 كم
غيوم قليلة على ارتفاع 11000 قدم

METAR: KIAD 242152Z 20008KT 10SM FEW110 27/22 A2984 RMK AO2 SLP103 T02720222

زمن: 18:37 (22:37 UTC)

توقعات

تاريخ ووقت الإصدار 1ساعة و 56 دقيقة قبل الساعة 20:41UTC
التوقعات صالحة من24 الساعة 21 UTC إلى 25 الساعة 24 UTC
ريح 7 عقدة من الغرب/الجنوب الغربي
الرؤية: 10 كم
غيوم مفككة على ارتفاع 5000 قدم, مزنة ركامية.
عاصفة رعدية بالجوار
من 25 الساعة 0000 UTC
ريح 6 عقدة من الغرب/الشمال الغربي
الرؤية: 10 كم
غيوم متفرقة على ارتفاع 6000 قدم
من 25 الساعة 1100 UTC
ريح 7 عقدة من الشمال/الشمال الغربي
الرؤية: 10 كم
غيوم متفرقة على ارتفاع 25000 قدم

TAF: KIAD 242041Z 2421/2524 25007KT P6SM VCTS BKN050CB FM250000 29006KT P6SM SCT060 FM251100 33007KT P6SM SCT250

أرصاد الطقس والتوقعات من أكثر من 4000 مطار (تقارير الطقس للمطار METAR والتنبؤ بالطقس بالمطارTAF).

المحطات المتاحة هي النقط الصفراء والحمراء على الخريطة.

حرك المؤشر فوق النقطة لمعرفة اسم المحطة.

ثم انقر لمعرفة أرصاد وتوقعات الطقس.

لتغيير الخارطة: اضغط على الأزرار الخضراء مع رمز الصليب الأسود للتكبير. على الزر الأخضر مع شرطة للتصغير، أو على الأسهم الخضراء للخرائط المجاورة.


METAR-TAF: